Terminal Aerodrome Forecast
Issued by NWS Amarillo, TX

Current Version | Previous Version | Text Only | Print | Product List | Glossary Off
Versions: 1 2 3 4 5 6 7 8 9 10 11 12 13 14

000
FTUS44 KAMA 301700
TAFDHT
TAF
KDHT 301720Z 3018/3118 19011G18KT P6SM FEW100
     FM310400 18011KT P6SM SKC
     FM311400 20011G18KT P6SM SKC=

USA.gov is the U.S. government's official web portal to all federal, state and local government web resources and services.